createdAt,value
2022-09-15T00:02:20.936Z,21.30
2022-09-15T00:12:28.325Z,27.40
2022-09-15T00:17:31.703Z,24.90
2022-09-15T00:22:34.528Z,18.50
2022-09-15T00:27:37.462Z,22.60
2022-09-15T00:32:40.281Z,21.10
2022-09-15T00:37:43.042Z,19.10
2022-09-15T00:42:45.868Z,17.80
2022-09-15T00:47:48.804Z,19.30
2022-09-15T00:52:58.813Z,20.00
2022-09-15T00:58:06.859Z,22.90
2022-09-15T01:03:10.195Z,21.50
2022-09-15T01:08:46.313Z,19.90
2022-09-15T01:13:49.113Z,21.90
2022-09-15T01:19:13.592Z,23.20
2022-09-15T01:24:34.295Z,20.20
2022-09-15T01:30:06.046Z,17.90
2022-09-15T01:35:37.475Z,22.80
2022-09-15T01:40:54.377Z,19.50
2022-09-15T01:45:59.311Z,20.10
2022-09-15T01:51:04.089Z,17.20
2022-09-15T01:56:10.345Z,17.50
2022-09-15T02:01:34.145Z,17.60
2022-09-15T02:06:53.775Z,22.30
2022-09-15T02:12:27.029Z,20.10
2022-09-15T02:17:32.788Z,18.80
2022-09-15T02:22:39.795Z,21.60
2022-09-15T02:27:54.101Z,19.90
2022-09-15T02:33:00.891Z,19.30
2022-09-15T02:38:07.536Z,20.60
2022-09-15T02:43:16.306Z,20.60
2022-09-15T02:48:19.284Z,18.40
2022-09-15T02:53:22.017Z,24.80
2022-09-15T02:58:24.961Z,20.80
2022-09-15T03:03:27.748Z,18.00
2022-09-15T03:08:31.242Z,23.50
2022-09-15T03:13:34.122Z,19.00
2022-09-15T03:18:38.138Z,23.00
2022-09-15T03:23:42.156Z,19.70
2022-09-15T03:28:45.259Z,25.00
2022-09-15T03:33:49.244Z,25.60
2022-09-15T03:38:52.717Z,27.80
2022-09-15T03:43:56.866Z,29.90
2022-09-15T03:48:59.625Z,31.20
2022-09-15T03:54:03.300Z,33.50
2022-09-15T03:59:06.815Z,34.20
2022-09-15T04:04:09.681Z,35.90
2022-09-15T04:09:12.499Z,29.20
2022-09-15T04:14:15.817Z,38.30
2022-09-15T04:19:18.646Z,37.30
2022-09-15T04:24:21.466Z,30.50
2022-09-15T04:29:24.944Z,42.40
2022-09-15T04:34:27.755Z,41.80
2022-09-15T04:39:30.651Z,50.10
2022-09-15T04:44:33.662Z,53.90
2022-09-15T04:49:36.477Z,44.50
2022-09-15T04:54:39.274Z,41.10
2022-09-15T04:59:42.072Z,34.30
2022-09-15T05:36:47.934Z,38.00
2022-09-15T05:41:50.812Z,45.70
2022-09-15T05:51:56.951Z,48.70
2022-09-15T05:57:07.893Z,44.10
2022-09-15T06:02:13.497Z,46.80
2022-09-15T06:07:19.998Z,45.20
2022-09-15T06:12:23.388Z,50.90
2022-09-15T06:17:26.235Z,54.10
2022-09-15T06:27:32.915Z,57.00
2022-09-15T06:32:37.669Z,35.50
2022-09-15T06:37:41.766Z,35.10
2022-09-15T06:42:44.841Z,26.10
2022-09-15T06:48:02.074Z,21.40
2022-09-15T06:58:15.725Z,18.50
2022-09-15T07:12:11.867Z,16.30
2022-09-15T07:17:17.164Z,21.40
2022-09-15T07:22:18.799Z,21.00
2022-09-15T07:27:36.909Z,19.60
2022-09-15T07:32:38.894Z,22.60
2022-09-15T07:37:40.396Z,15.30
2022-09-15T07:42:43.329Z,19.20
2022-09-15T07:47:45.114Z,15.60
2022-09-15T07:52:46.566Z,19.00
2022-09-15T07:58:00.369Z,10.80
2022-09-15T08:03:02.486Z,15.80
2022-09-15T08:08:05.538Z,9.00
2022-09-15T08:13:07.670Z,12.30
2022-09-15T08:18:09.152Z,12.30
2022-09-15T08:23:11.008Z,11.90
2022-09-15T08:28:12.547Z,13.10
2022-09-15T08:33:14.132Z,16.50
2022-09-15T08:38:15.534Z,27.50
2022-09-15T08:43:25.704Z,15.30
2022-09-15T08:48:36.863Z,10.00
2022-09-15T08:58:45.458Z,6.60
2022-09-15T09:09:25.413Z,7.90
2022-09-15T09:14:40.580Z,9.00
2022-09-15T09:19:52.510Z,8.50
2022-09-15T09:24:57.589Z,8.90
2022-09-15T09:30:15.936Z,9.50
2022-09-15T09:35:48.483Z,10.40
2022-09-15T09:40:50.702Z,6.80
2022-09-15T09:50:54.725Z,5.70
2022-09-15T09:56:11.919Z,7.10
2022-09-15T10:01:19.630Z,10.00
2022-09-15T10:06:25.102Z,7.40
2022-09-15T10:11:50.130Z,9.50
2022-09-15T10:17:18.329Z,6.80
2022-09-15T10:22:31.189Z,6.90
2022-09-15T10:27:35.058Z,9.90
2022-09-15T10:32:37.672Z,7.90
2022-09-15T10:43:11.105Z,8.80
2022-09-15T10:48:36.114Z,7.30
2022-09-15T10:54:07.387Z,10.00
2022-09-15T11:05:29.577Z,7.40
2022-09-15T11:10:55.837Z,6.80
2022-09-15T11:16:37.882Z,6.00
2022-09-15T11:21:47.168Z,5.90
2022-09-15T11:27:06.913Z,7.80
2022-09-15T11:32:24.989Z,5.70
2022-09-15T11:37:41.453Z,5.50
2022-09-15T11:42:55.634Z,10.30
2022-09-15T11:48:06.909Z,11.20
2022-09-15T11:53:18.276Z,6.50
2022-09-15T11:58:47.611Z,10.70
2022-09-15T12:04:10.560Z,5.90
2022-09-15T12:09:15.546Z,7.80
2022-09-15T12:14:29.972Z,9.10
2022-09-15T12:19:37.540Z,5.80
2022-09-15T12:25:01.248Z,5.40
2022-09-15T12:30:03.557Z,6.50
2022-09-15T12:35:17.129Z,4.10
2022-09-15T12:40:39.473Z,8.50
2022-09-15T12:45:55.109Z,5.50
2022-09-15T12:51:00.956Z,8.90
2022-09-15T12:56:06.825Z,6.60
2022-09-15T13:01:26.165Z,10.60
2022-09-15T13:06:34.366Z,6.20
2022-09-15T13:11:42.081Z,12.80
2022-09-15T13:16:52.351Z,12.90
2022-09-15T13:21:54.074Z,6.50
2022-09-15T13:27:00.930Z,8.30
2022-09-15T13:32:33.515Z,6.50
2022-09-15T13:38:17.105Z,10.80
2022-09-15T13:43:21.243Z,9.80
2022-09-15T13:49:00.377Z,8.50
2022-09-15T13:54:15.511Z,5.10
2022-09-15T13:59:29.029Z,6.00
2022-09-15T14:04:31.309Z,6.40
2022-09-15T14:09:41.653Z,6.90
2022-09-15T14:14:51.642Z,5.00
2022-09-15T14:19:58.198Z,4.80
2022-09-15T14:25:08.719Z,4.20
2022-09-15T14:30:19.070Z,3.90
2022-09-15T14:35:26.929Z,4.90
2022-09-15T14:40:34.209Z,4.70
2022-09-15T14:51:08.521Z,3.40
2022-09-15T14:56:19.535Z,4.60
2022-09-15T15:01:33.080Z,7.30
2022-09-15T15:06:44.186Z,5.10
2022-09-15T15:11:56.467Z,3.70
2022-09-15T15:17:07.561Z,4.30
2022-09-15T15:22:23.217Z,5.40
2022-09-15T15:27:33.858Z,5.90
2022-09-15T15:32:35.360Z,2.90
2022-09-15T15:37:36.934Z,2.50
2022-09-15T15:42:54.238Z,11.00
2022-09-15T15:47:57.100Z,5.40
2022-09-15T15:53:00.315Z,8.80
2022-09-15T15:58:01.744Z,6.40
2022-09-15T16:03:04.719Z,6.60
2022-09-15T16:13:15.604Z,22.70
2022-09-15T16:18:17.489Z,11.70
2022-09-15T16:23:22.153Z,12.50
2022-09-15T16:28:23.618Z,5.10
2022-09-15T16:33:25.740Z,6.30
2022-09-15T16:38:27.985Z,7.10
2022-09-15T16:43:30.239Z,8.40
2022-09-15T16:48:31.896Z,8.20
2022-09-15T16:53:33.361Z,8.70
2022-09-15T16:58:34.943Z,5.70
2022-09-15T17:03:36.418Z,5.90
2022-09-15T17:08:37.940Z,5.60
2022-09-15T17:13:39.506Z,4.70
2022-09-15T17:18:40.941Z,7.30
2022-09-15T17:23:49.530Z,6.80
2022-09-15T17:28:51.602Z,7.10
2022-09-15T17:33:53.233Z,7.60
2022-09-15T17:38:55.239Z,10.20
2022-09-15T17:43:57.398Z,6.30
2022-09-15T17:48:58.834Z,3.30
2022-09-15T17:54:00.266Z,5.50
2022-09-15T17:59:01.747Z,5.00
2022-09-15T18:04:03.289Z,4.90
2022-09-15T18:09:04.963Z,6.50
2022-09-15T18:14:06.544Z,6.80
2022-09-15T18:19:07.966Z,8.00
2022-09-15T18:24:14.448Z,7.80
2022-09-15T18:29:16.039Z,6.70
2022-09-15T18:34:17.551Z,9.60
2022-09-15T18:39:18.957Z,6.80
2022-09-15T18:44:21.529Z,10.00
2022-09-15T18:49:22.976Z,14.50
2022-09-15T18:54:25.018Z,8.90
2022-09-15T18:59:26.751Z,10.80
2022-09-15T19:04:32.179Z,13.40
2022-09-15T19:09:36.113Z,9.80
2022-09-15T19:14:41.297Z,9.90
2022-09-15T19:19:46.626Z,10.20
2022-09-15T19:24:49.480Z,9.70
2022-09-15T19:29:52.325Z,11.00
2022-09-15T19:34:55.127Z,15.10
2022-09-15T19:39:58.045Z,9.10
2022-09-15T19:45:00.886Z,11.10
2022-09-15T19:50:06.225Z,11.10
2022-09-15T19:55:10.272Z,8.50
2022-09-15T20:00:14.771Z,10.00
2022-09-15T20:05:32.803Z,7.00
2022-09-15T20:10:39.581Z,10.30
2022-09-15T20:15:43.414Z,11.20
2022-09-15T20:20:46.291Z,11.80
2022-09-15T20:26:01.057Z,8.20
2022-09-15T20:31:08.269Z,7.70
2022-09-15T20:36:36.607Z,8.90
2022-09-15T20:41:41.084Z,9.10
2022-09-15T20:46:44.033Z,9.70
2022-09-15T20:51:47.620Z,9.50
2022-09-15T21:01:53.153Z,6.50
2022-09-15T21:06:56.128Z,9.70
2022-09-15T21:12:00.259Z,9.60
2022-09-15T21:17:03.200Z,9.50
2022-09-15T21:22:06.362Z,6.60
2022-09-15T21:32:29.948Z,8.00
2022-09-15T21:37:32.884Z,7.80
2022-09-15T21:42:35.718Z,7.70
2022-09-15T21:47:38.634Z,8.60
2022-09-15T21:52:41.442Z,9.20
2022-09-15T21:57:44.193Z,7.00
2022-09-15T22:02:51.264Z,14.30
2022-09-15T22:07:54.016Z,6.90
2022-09-15T22:12:57.106Z,5.50
2022-09-15T22:23:02.736Z,10.00
2022-09-15T22:28:05.589Z,6.50
2022-09-15T22:33:08.401Z,9.90
2022-09-15T22:38:11.168Z,9.50
2022-09-15T22:43:13.975Z,10.00
2022-09-15T22:48:17.349Z,13.20
2022-09-15T22:53:20.235Z,10.90
2022-09-15T22:58:22.986Z,8.40
2022-09-15T23:03:25.810Z,5.90
2022-09-15T23:08:29.794Z,6.00
2022-09-15T23:13:33.307Z,5.80
2022-09-15T23:18:36.919Z,9.80
2022-09-15T23:23:41.554Z,6.60
2022-09-15T23:28:44.446Z,8.10
2022-09-15T23:33:48.042Z,7.20
2022-09-15T23:38:50.866Z,9.30
2022-09-15T23:43:53.678Z,4.30
2022-09-15T23:48:56.487Z,8.30
2022-09-15T23:53:59.407Z,8.80
2022-09-15T23:59:02.302Z,11.20
